Rechercher aéroport 
image banner adimage banner adimage banner ad
image banner ad

2CL3 - Longbell Ranch

Situé à Tennant, United States

ICAO - 2CL3, IATA -

Données fournies par Airmate  

Information générale

Coordonnées: N41°38'32" W121°53'25"
Élévation : 4607 feet MSL.
Variation magnétique : 17° East
Voir autres Aéroports à California

Données opérationnelles

Special qualification required
Heure actuelle UTC:
Heure actuelle locale:
Météo à : KSIY - Siskiyou County ( 50 km )
METAR: KSIY 291453Z AUTO 00000KT 10SM CLR 20/09 A3012 RMK AO2 SLP183 T02000094
Voir NOTAMs / SUP AIP / TFR affectant cet aéroport [VIEW]
Fréquences de communication: [VIEW]

Pistes:

Identifiant RWYQFULongueur (ft)Largeur (ft)SurfaceLDA (ft)
15500060GRASS
33500060GRASS

Coordonnées de l'aéroport

Adresse: Tennant United States

Vue satellite de 2CL3